sensor_id;sensor_type;location;lat;lon;timestamp;temperature;humidity
37642;DHT22;23486;51.956;5.888;2023-04-24T00:00:08;10.30;99.90
37642;DHT22;23486;51.956;5.888;2023-04-24T00:02:38;10.30;99.90
37642;DHT22;23486;51.956;5.888;2023-04-24T00:05:07;10.30;99.90
37642;DHT22;23486;51.956;5.888;2023-04-24T00:07:33;10.30;99.90
37642;DHT22;23486;51.956;5.888;2023-04-24T00:09:59;10.30;99.90
37642;DHT22;23486;51.956;5.888;2023-04-24T00:12:25;10.30;99.90
37642;DHT22;23486;51.956;5.888;2023-04-24T00:14:51;10.30;99.90
37642;DHT22;23486;51.956;5.888;2023-04-24T00:17:17;10.30;99.90
37642;DHT22;23486;51.956;5.888;2023-04-24T00:19:45;10.30;99.90
37642;DHT22;23486;51.956;5.888;2023-04-24T00:22:11;10.30;99.90
37642;DHT22;23486;51.956;5.888;2023-04-24T00:24:38;10.30;99.90
37642;DHT22;23486;51.956;5.888;2023-04-24T00:27:04;10.30;99.90
37642;DHT22;23486;51.956;5.888;2023-04-24T00:29:29;10.20;99.90
37642;DHT22;23486;51.956;5.888;2023-04-24T00:31:55;10.20;99.90
37642;DHT22;23486;51.956;5.888;2023-04-24T00:34:21;10.20;99.90
37642;DHT22;23486;51.956;5.888;2023-04-24T00:36:47;10.20;99.90
37642;DHT22;23486;51.956;5.888;2023-04-24T00:39:14;10.20;99.90
37642;DHT22;23486;51.956;5.888;2023-04-24T00:41:40;10.20;99.90
37642;DHT22;23486;51.956;5.888;2023-04-24T00:44:06;10.10;99.90
37642;DHT22;23486;51.956;5.888;2023-04-24T00:46:32;10.20;99.90
37642;DHT22;23486;51.956;5.888;2023-04-24T00:48:59;10.10;99.90
37642;DHT22;23486;51.956;5.888;2023-04-24T00:51:24;10.00;99.90
37642;DHT22;23486;51.956;5.888;2023-04-24T00:53:50;10.00;99.90
37642;DHT22;23486;51.956;5.888;2023-04-24T00:56:23;10.00;99.90
37642;DHT22;23486;51.956;5.888;2023-04-24T00:58:49;9.90;99.90
37642;DHT22;23486;51.956;5.888;2023-04-24T01:01:19;9.90;99.90
37642;DHT22;23486;51.956;5.888;2023-04-24T01:03:50;9.90;99.90
37642;DHT22;23486;51.956;5.888;2023-04-24T01:06:16;9.90;99.90
37642;DHT22;23486;51.956;5.888;2023-04-24T01:08:44;9.90;99.90
37642;DHT22;23486;51.956;5.888;2023-04-24T01:11:11;9.90;99.90
37642;DHT22;23486;51.956;5.888;2023-04-24T01:13:37;9.90;99.90
37642;DHT22;23486;51.956;5.888;2023-04-24T01:16:03;9.90;99.90
37642;DHT22;23486;51.956;5.888;2023-04-24T01:18:29;10.00;99.90
37642;DHT22;23486;51.956;5.888;2023-04-24T01:20:57;10.00;99.90
37642;DHT22;23486;51.956;5.888;2023-04-24T01:23:23;10.00;99.90
37642;DHT22;23486;51.956;5.888;2023-04-24T01:25:50;10.00;99.90
37642;DHT22;23486;51.956;5.888;2023-04-24T01:28:17;10.00;99.90
37642;DHT22;23486;51.956;5.888;2023-04-24T01:30:43;10.10;99.90
37642;DHT22;23486;51.956;5.888;2023-04-24T01:33:08;10.10;99.90
37642;DHT22;23486;51.956;5.888;2023-04-24T01:35:34;10.10;99.90
37642;DHT22;23486;51.956;5.888;2023-04-24T01:38:01;10.10;99.90
37642;DHT22;23486;51.956;5.888;2023-04-24T01:40:27;10.10;99.90
37642;DHT22;23486;51.956;5.888;2023-04-24T01:42:53;10.10;99.90
37642;DHT22;23486;51.956;5.888;2023-04-24T01:45:18;10.10;99.90
37642;DHT22;23486;51.956;5.888;2023-04-24T01:47:45;10.10;99.90
37642;DHT22;23486;51.956;5.888;2023-04-24T01:50:10;10.10;99.90
37642;DHT22;23486;51.956;5.888;2023-04-24T01:52:36;10.10;99.90
37642;DHT22;23486;51.956;5.888;2023-04-24T01:55:03;10.10;99.90
37642;DHT22;23486;51.956;5.888;2023-04-24T01:57:30;10.10;99.90
37642;DHT22;23486;51.956;5.888;2023-04-24T01:59:56;10.10;99.90
37642;DHT22;23486;51.956;5.888;2023-04-24T02:02:22;10.10;99.90
37642;DHT22;23486;51.956;5.888;2023-04-24T02:04:49;10.10;99.90
37642;DHT22;23486;51.956;5.888;2023-04-24T02:07:15;10.20;99.90
37642;DHT22;23486;51.956;5.888;2023-04-24T02:09:41;10.10;99.90
37642;DHT22;23486;51.956;5.888;2023-04-24T02:12:06;10.10;99.90
37642;DHT22;23486;51.956;5.888;2023-04-24T02:14:32;10.20;99.90
37642;DHT22;23486;51.956;5.888;2023-04-24T02:16:58;10.20;99.90
37642;DHT22;23486;51.956;5.888;2023-04-24T02:19:23;10.20;99.90
37642;DHT22;23486;51.956;5.888;2023-04-24T02:21:49;10.20;99.90
37642;DHT22;23486;51.956;5.888;2023-04-24T02:24:18;10.20;99.90
37642;DHT22;23486;51.956;5.888;2023-04-24T02:26:44;10.20;99.90
37642;DHT22;23486;51.956;5.888;2023-04-24T02:29:10;10.10;99.90
37642;DHT22;23486;51.956;5.888;2023-04-24T02:31:35;10.10;99.90
37642;DHT22;23486;51.956;5.888;2023-04-24T02:34:01;10.10;99.90
37642;DHT22;23486;51.956;5.888;2023-04-24T02:36:27;10.10;99.90
37642;DHT22;23486;51.956;5.888;2023-04-24T02:38:52;10.20;99.90
37642;DHT22;23486;51.956;5.888;2023-04-24T02:41:18;10.10;99.90
37642;DHT22;23486;51.956;5.888;2023-04-24T02:43:43;10.10;99.90
37642;DHT22;23486;51.956;5.888;2023-04-24T02:46:09;10.10;99.90
37642;DHT22;23486;51.956;5.888;2023-04-24T02:48:37;10.10;99.90
37642;DHT22;23486;51.956;5.888;2023-04-24T02:51:03;10.10;99.90
37642;DHT22;23486;51.956;5.888;2023-04-24T02:53:29;10.10;99.90
37642;DHT22;23486;51.956;5.888;2023-04-24T02:55:55;10.00;99.90
37642;DHT22;23486;51.956;5.888;2023-04-24T02:58:21;10.00;99.90
37642;DHT22;23486;51.956;5.888;2023-04-24T03:00:47;10.00;99.90
37642;DHT22;23486;51.956;5.888;2023-04-24T03:03:13;10.10;99.90
37642;DHT22;23486;51.956;5.888;2023-04-24T03:05:42;10.00;99.90
37642;DHT22;23486;51.956;5.888;2023-04-24T03:08:07;10.00;99.90
37642;DHT22;23486;51.956;5.888;2023-04-24T03:10:33;10.00;99.90
37642;DHT22;23486;51.956;5.888;2023-04-24T03:12:58;10.00;99.90
37642;DHT22;23486;51.956;5.888;2023-04-24T03:15:24;10.00;99.90
37642;DHT22;23486;51.956;5.888;2023-04-24T03:17:49;10.00;99.90
37642;DHT22;23486;51.956;5.888;2023-04-24T03:20:15;9.90;99.90
37642;DHT22;23486;51.956;5.888;2023-04-24T03:22:41;10.00;99.90
37642;DHT22;23486;51.956;5.888;2023-04-24T03:25:07;9.90;99.90
37642;DHT22;23486;51.956;5.888;2023-04-24T03:27:34;9.90;99.90
37642;DHT22;23486;51.956;5.888;2023-04-24T03:30:00;9.90;99.90
37642;DHT22;23486;51.956;5.888;2023-04-24T03:32:26;9.90;99.90
37642;DHT22;23486;51.956;5.888;2023-04-24T03:34:52;9.80;99.90
37642;DHT22;23486;51.956;5.888;2023-04-24T03:37:17;9.80;99.90
37642;DHT22;23486;51.956;5.888;2023-04-24T03:39:43;9.80;99.90
37642;DHT22;23486;51.956;5.888;2023-04-24T03:42:09;9.80;99.90
37642;DHT22;23486;51.956;5.888;2023-04-24T03:44:35;9.80;99.90
37642;DHT22;23486;51.956;5.888;2023-04-24T03:47:01;9.80;99.90
37642;DHT22;23486;51.956;5.888;2023-04-24T03:49:27;9.80;99.90
37642;DHT22;23486;51.956;5.888;2023-04-24T03:51:52;9.70;99.90
37642;DHT22;23486;51.956;5.888;2023-04-24T03:54:19;9.70;99.90
37642;DHT22;23486;51.956;5.888;2023-04-24T03:56:44;9.70;99.90
37642;DHT22;23486;51.956;5.888;2023-04-24T03:59:10;9.70;99.90
37642;DHT22;23486;51.956;5.888;2023-04-24T04:01:36;9.70;99.90
37642;DHT22;23486;51.956;5.888;2023-04-24T04:04:03;9.70;99.90
37642;DHT22;23486;51.956;5.888;2023-04-24T04:06:29;9.70;99.90
37642;DHT22;23486;51.956;5.888;2023-04-24T04:08:56;9.60;99.90
37642;DHT22;23486;51.956;5.888;2023-04-24T04:11:22;9.60;99.90
37642;DHT22;23486;51.956;5.888;2023-04-24T04:13:47;9.60;99.90
37642;DHT22;23486;51.956;5.888;2023-04-24T04:16:13;9.60;99.90
37642;DHT22;23486;51.956;5.888;2023-04-24T04:18:42;9.60;99.90
37642;DHT22;23486;51.956;5.888;2023-04-24T04:21:07;9.60;99.90
37642;DHT22;23486;51.956;5.888;2023-04-24T04:23:33;9.60;99.90
37642;DHT22;23486;51.956;5.888;2023-04-24T04:25:59;9.50;99.90
37642;DHT22;23486;51.956;5.888;2023-04-24T04:28:25;9.50;99.90
37642;DHT22;23486;51.956;5.888;2023-04-24T04:30:50;9.60;99.90
37642;DHT22;23486;51.956;5.888;2023-04-24T04:33:21;9.60;99.90
37642;DHT22;23486;51.956;5.888;2023-04-24T04:35:46;9.60;99.90
37642;DHT22;23486;51.956;5.888;2023-04-24T04:38:17;9.60;99.90
37642;DHT22;23486;51.956;5.888;2023-04-24T04:40:43;9.50;99.90
37642;DHT22;23486;51.956;5.888;2023-04-24T04:43:09;9.60;99.90
37642;DHT22;23486;51.956;5.888;2023-04-24T04:45:39;9.60;99.90
37642;DHT22;23486;51.956;5.888;2023-04-24T04:48:06;9.60;99.90
37642;DHT22;23486;51.956;5.888;2023-04-24T04:50:33;9.50;99.90
37642;DHT22;23486;51.956;5.888;2023-04-24T04:52:59;9.50;99.90
37642;DHT22;23486;51.956;5.888;2023-04-24T04:55:24;9.50;99.90
37642;DHT22;23486;51.956;5.888;2023-04-24T04:57:51;9.50;99.90
37642;DHT22;23486;51.956;5.888;2023-04-24T05:00:17;9.50;99.90
37642;DHT22;23486;51.956;5.888;2023-04-24T05:02:43;9.50;99.90
37642;DHT22;23486;51.956;5.888;2023-04-24T05:05:09;9.50;99.90
37642;DHT22;23486;51.956;5.888;2023-04-24T05:07:35;9.50;99.90
37642;DHT22;23486;51.956;5.888;2023-04-24T05:10:01;9.50;99.90
37642;DHT22;23486;51.956;5.888;2023-04-24T05:12:26;9.50;99.90
37642;DHT22;23486;51.956;5.888;2023-04-24T05:14:52;9.50;99.90
37642;DHT22;23486;51.956;5.888;2023-04-24T05:17:20;9.40;99.90
37642;DHT22;23486;51.956;5.888;2023-04-24T05:19:49;9.40;99.90
37642;DHT22;23486;51.956;5.888;2023-04-24T05:22:15;9.40;99.90
37642;DHT22;23486;51.956;5.888;2023-04-24T05:24:40;9.40;99.90
37642;DHT22;23486;51.956;5.888;2023-04-24T05:27:06;9.40;99.90
37642;DHT22;23486;51.956;5.888;2023-04-24T05:29:31;9.40;99.90
37642;DHT22;23486;51.956;5.888;2023-04-24T05:31:59;9.40;99.90
37642;DHT22;23486;51.956;5.888;2023-04-24T05:34:24;9.40;99.90
37642;DHT22;23486;51.956;5.888;2023-04-24T05:36:50;9.30;99.90
37642;DHT22;23486;51.956;5.888;2023-04-24T05:39:16;9.30;99.90
37642;DHT22;23486;51.956;5.888;2023-04-24T05:41:42;9.30;99.90
37642;DHT22;23486;51.956;5.888;2023-04-24T05:44:07;9.30;99.90
37642;DHT22;23486;51.956;5.888;2023-04-24T05:46:34;9.30;99.90
37642;DHT22;23486;51.956;5.888;2023-04-24T05:49:03;9.30;99.90
37642;DHT22;23486;51.956;5.888;2023-04-24T05:51:28;9.40;99.90
37642;DHT22;23486;51.956;5.888;2023-04-24T05:53:54;9.30;99.90
37642;DHT22;23486;51.956;5.888;2023-04-24T05:56:20;9.30;99.90
37642;DHT22;23486;51.956;5.888;2023-04-24T05:58:46;9.30;99.90
37642;DHT22;23486;51.956;5.888;2023-04-24T06:01:12;9.30;99.90
37642;DHT22;23486;51.956;5.888;2023-04-24T06:03:40;9.30;99.90
37642;DHT22;23486;51.956;5.888;2023-04-24T06:06:07;9.40;99.90
37642;DHT22;23486;51.956;5.888;2023-04-24T06:08:32;9.40;99.90
37642;DHT22;23486;51.956;5.888;2023-04-24T06:10:58;9.40;99.90
37642;DHT22;23486;51.956;5.888;2023-04-24T06:13:24;9.50;99.90
37642;DHT22;23486;51.956;5.888;2023-04-24T06:15:52;9.50;99.90
37642;DHT22;23486;51.956;5.888;2023-04-24T06:18:18;9.50;99.90
37642;DHT22;23486;51.956;5.888;2023-04-24T06:20:45;9.50;99.90
37642;DHT22;23486;51.956;5.888;2023-04-24T06:23:11;9.50;99.90
37642;DHT22;23486;51.956;5.888;2023-04-24T06:25:37;9.50;99.90
37642;DHT22;23486;51.956;5.888;2023-04-24T06:28:03;9.60;99.90
37642;DHT22;23486;51.956;5.888;2023-04-24T06:30:28;9.60;99.90
37642;DHT22;23486;51.956;5.888;2023-04-24T06:32:54;9.70;99.90
37642;DHT22;23486;51.956;5.888;2023-04-24T06:35:20;9.70;99.90
37642;DHT22;23486;51.956;5.888;2023-04-24T06:37:45;9.70;99.90
37642;DHT22;23486;51.956;5.888;2023-04-24T06:40:11;9.80;99.90
37642;DHT22;23486;51.956;5.888;2023-04-24T06:42:37;9.80;99.90
37642;DHT22;23486;51.956;5.888;2023-04-24T06:45:03;9.70;99.90
37642;DHT22;23486;51.956;5.888;2023-04-24T06:47:29;9.80;99.90
37642;DHT22;23486;51.956;5.888;2023-04-24T06:49:54;9.90;99.90
37642;DHT22;23486;51.956;5.888;2023-04-24T06:52:20;9.90;99.90
37642;DHT22;23486;51.956;5.888;2023-04-24T06:54:46;9.90;99.90
37642;DHT22;23486;51.956;5.888;2023-04-24T06:57:12;10.00;99.90
37642;DHT22;23486;51.956;5.888;2023-04-24T06:59:38;10.00;99.90
37642;DHT22;23486;51.956;5.888;2023-04-24T07:02:03;10.00;99.90
37642;DHT22;23486;51.956;5.888;2023-04-24T07:04:29;10.10;99.90
37642;DHT22;23486;51.956;5.888;2023-04-24T07:06:55;10.10;99.90
37642;DHT22;23486;51.956;5.888;2023-04-24T07:09:22;10.10;99.90
37642;DHT22;23486;51.956;5.888;2023-04-24T07:11:49;10.10;99.90
37642;DHT22;23486;51.956;5.888;2023-04-24T07:14:15;10.00;99.90
37642;DHT22;23486;51.956;5.888;2023-04-24T07:16:42;10.00;99.90
37642;DHT22;23486;51.956;5.888;2023-04-24T07:19:08;10.00;99.90
37642;DHT22;23486;51.956;5.888;2023-04-24T07:21:34;9.90;99.90
37642;DHT22;23486;51.956;5.888;2023-04-24T07:24:00;9.80;99.90
37642;DHT22;23486;51.956;5.888;2023-04-24T07:26:27;9.70;99.90
37642;DHT22;23486;51.956;5.888;2023-04-24T07:28:53;9.70;99.90
37642;DHT22;23486;51.956;5.888;2023-04-24T07:31:19;9.60;99.90
37642;DHT22;23486;51.956;5.888;2023-04-24T07:33:44;9.60;99.90
37642;DHT22;23486;51.956;5.888;2023-04-24T07:36:13;9.50;99.90
37642;DHT22;23486;51.956;5.888;2023-04-24T07:38:42;9.50;99.90
37642;DHT22;23486;51.956;5.888;2023-04-24T07:41:08;9.40;99.90
37642;DHT22;23486;51.956;5.888;2023-04-24T07:43:34;9.40;99.90
37642;DHT22;23486;51.956;5.888;2023-04-24T07:45:59;9.40;99.90
37642;DHT22;23486;51.956;5.888;2023-04-24T07:48:25;9.30;99.90
37642;DHT22;23486;51.956;5.888;2023-04-24T07:50:52;9.20;99.90
37642;DHT22;23486;51.956;5.888;2023-04-24T07:53:17;9.20;99.90
37642;DHT22;23486;51.956;5.888;2023-04-24T07:55:43;9.10;99.90
37642;DHT22;23486;51.956;5.888;2023-04-24T07:58:08;9.10;99.90
37642;DHT22;23486;51.956;5.888;2023-04-24T08:00:34;9.10;99.90
37642;DHT22;23486;51.956;5.888;2023-04-24T08:03:00;9.00;99.90
37642;DHT22;23486;51.956;5.888;2023-04-24T08:05:26;8.90;99.90
37642;DHT22;23486;51.956;5.888;2023-04-24T08:07:54;8.90;99.90
37642;DHT22;23486;51.956;5.888;2023-04-24T08:10:23;8.80;99.90
37642;DHT22;23486;51.956;5.888;2023-04-24T08:12:52;8.70;99.90
37642;DHT22;23486;51.956;5.888;2023-04-24T08:15:17;8.70;99.90
37642;DHT22;23486;51.956;5.888;2023-04-24T08:17:43;8.60;99.90
37642;DHT22;23486;51.956;5.888;2023-04-24T08:20:10;8.60;99.90
37642;DHT22;23486;51.956;5.888;2023-04-24T08:22:42;8.60;99.90
37642;DHT22;23486;51.956;5.888;2023-04-24T08:25:09;8.50;99.90
37642;DHT22;23486;51.956;5.888;2023-04-24T08:27:35;8.50;99.90
37642;DHT22;23486;51.956;5.888;2023-04-24T08:30:02;8.50;99.90
37642;DHT22;23486;51.956;5.888;2023-04-24T08:32:31;8.50;99.90
37642;DHT22;23486;51.956;5.888;2023-04-24T08:34:58;8.50;99.90
37642;DHT22;23486;51.956;5.888;2023-04-24T08:37:23;8.50;99.90
37642;DHT22;23486;51.956;5.888;2023-04-24T08:39:50;8.50;99.90
37642;DHT22;23486;51.956;5.888;2023-04-24T08:42:17;8.50;99.90
37642;DHT22;23486;51.956;5.888;2023-04-24T08:44:43;8.50;99.90
37642;DHT22;23486;51.956;5.888;2023-04-24T08:47:10;8.50;99.90
37642;DHT22;23486;51.956;5.888;2023-04-24T08:49:36;8.50;99.90
37642;DHT22;23486;51.956;5.888;2023-04-24T08:52:03;8.50;99.90
37642;DHT22;23486;51.956;5.888;2023-04-24T08:54:30;8.60;99.90
37642;DHT22;23486;51.956;5.888;2023-04-24T08:57:00;8.60;99.90
37642;DHT22;23486;51.956;5.888;2023-04-24T08:59:31;8.60;99.90
37642;DHT22;23486;51.956;5.888;2023-04-24T09:01:57;8.60;99.90
37642;DHT22;23486;51.956;5.888;2023-04-24T09:04:27;8.60;99.90
37642;DHT22;23486;51.956;5.888;2023-04-24T09:06:57;8.60;99.90
37642;DHT22;23486;51.956;5.888;2023-04-24T09:09:24;8.40;99.90
37642;DHT22;23486;51.956;5.888;2023-04-24T09:11:51;8.40;99.90
37642;DHT22;23486;51.956;5.888;2023-04-24T09:14:19;8.40;99.90
37642;DHT22;23486;51.956;5.888;2023-04-24T09:16:45;8.40;99.90
37642;DHT22;23486;51.956;5.888;2023-04-24T09:19:11;8.40;99.90
37642;DHT22;23486;51.956;5.888;2023-04-24T09:21:36;8.40;99.90
37642;DHT22;23486;51.956;5.888;2023-04-24T09:24:04;8.40;99.90
37642;DHT22;23486;51.956;5.888;2023-04-24T09:26:31;8.40;99.90
37642;DHT22;23486;51.956;5.888;2023-04-24T09:28:58;8.50;99.90
37642;DHT22;23486;51.956;5.888;2023-04-24T09:31:27;8.50;99.90
37642;DHT22;23486;51.956;5.888;2023-04-24T09:34:04;8.60;99.90
37642;DHT22;23486;51.956;5.888;2023-04-24T09:36:35;8.70;99.90
37642;DHT22;23486;51.956;5.888;2023-04-24T09:39:05;8.80;99.90
37642;DHT22;23486;51.956;5.888;2023-04-24T09:41:33;8.80;99.90
37642;DHT22;23486;51.956;5.888;2023-04-24T09:44:19;8.90;99.90
37642;DHT22;23486;51.956;5.888;2023-04-24T09:46:53;8.90;99.90
37642;DHT22;23486;51.956;5.888;2023-04-24T09:49:26;8.90;99.90
37642;DHT22;23486;51.956;5.888;2023-04-24T09:51:52;8.90;99.90
37642;DHT22;23486;51.956;5.888;2023-04-24T09:54:27;8.90;99.90
37642;DHT22;23486;51.956;5.888;2023-04-24T09:56:54;8.90;99.90
37642;DHT22;23486;51.956;5.888;2023-04-24T09:59:20;9.00;99.90
37642;DHT22;23486;51.956;5.888;2023-04-24T10:01:46;9.00;99.90
37642;DHT22;23486;51.956;5.888;2023-04-24T10:04:27;9.00;99.90
37642;DHT22;23486;51.956;5.888;2023-04-24T10:06:54;9.00;99.90
37642;DHT22;23486;51.956;5.888;2023-04-24T10:09:22;9.00;99.90
37642;DHT22;23486;51.956;5.888;2023-04-24T10:11:50;9.10;99.90
37642;DHT22;23486;51.956;5.888;2023-04-24T10:14:20;9.20;99.90
37642;DHT22;23486;51.956;5.888;2023-04-24T10:16:47;9.30;99.90
37642;DHT22;23486;51.956;5.888;2023-04-24T10:19:14;9.40;99.90
37642;DHT22;23486;51.956;5.888;2023-04-24T10:21:41;9.50;99.90
37642;DHT22;23486;51.956;5.888;2023-04-24T10:24:18;9.70;99.90
37642;DHT22;23486;51.956;5.888;2023-04-24T10:26:45;9.70;99.90
37642;DHT22;23486;51.956;5.888;2023-04-24T10:29:17;9.80;99.90
37642;DHT22;23486;51.956;5.888;2023-04-24T10:31:43;9.80;99.90
37642;DHT22;23486;51.956;5.888;2023-04-24T10:34:11;9.90;99.90
37642;DHT22;23486;51.956;5.888;2023-04-24T10:36:40;10.10;99.90
37642;DHT22;23486;51.956;5.888;2023-04-24T10:39:09;10.20;99.90
37642;DHT22;23486;51.956;5.888;2023-04-24T10:41:37;10.40;99.90
37642;DHT22;23486;51.956;5.888;2023-04-24T10:44:14;10.40;99.90
37642;DHT22;23486;51.956;5.888;2023-04-24T10:46:44;10.40;99.90
37642;DHT22;23486;51.956;5.888;2023-04-24T10:49:10;10.40;99.90
37642;DHT22;23486;51.956;5.888;2023-04-24T10:54:36;10.30;99.90
37642;DHT22;23486;51.956;5.888;2023-04-24T10:59:46;10.40;99.90
37642;DHT22;23486;51.956;5.888;2023-04-24T11:02:14;10.30;99.90
37642;DHT22;23486;51.956;5.888;2023-04-24T11:04:44;10.30;99.90
37642;DHT22;23486;51.956;5.888;2023-04-24T11:07:12;10.30;99.90
37642;DHT22;23486;51.956;5.888;2023-04-24T11:09:38;10.20;99.90
37642;DHT22;23486;51.956;5.888;2023-04-24T11:12:09;10.10;99.90
37642;DHT22;23486;51.956;5.888;2023-04-24T11:17:37;9.90;99.90
37642;DHT22;23486;51.956;5.888;2023-04-24T11:20:17;9.80;99.90
37642;DHT22;23486;51.956;5.888;2023-04-24T11:22:42;9.90;99.90
37642;DHT22;23486;51.956;5.888;2023-04-24T11:25:09;10.00;99.90
37642;DHT22;23486;51.956;5.888;2023-04-24T11:27:42;10.20;99.90
37642;DHT22;23486;51.956;5.888;2023-04-24T11:30:08;10.40;99.90
37642;DHT22;23486;51.956;5.888;2023-04-24T11:32:43;10.40;99.90
37642;DHT22;23486;51.956;5.888;2023-04-24T11:35:19;10.40;99.90
37642;DHT22;23486;51.956;5.888;2023-04-24T11:37:47;10.40;99.90
37642;DHT22;23486;51.956;5.888;2023-04-24T11:40:16;10.40;99.90
37642;DHT22;23486;51.956;5.888;2023-04-24T11:42:52;10.40;99.90
37642;DHT22;23486;51.956;5.888;2023-04-24T11:45:24;10.60;99.90
37642;DHT22;23486;51.956;5.888;2023-04-24T11:47:50;10.70;99.90
37642;DHT22;23486;51.956;5.888;2023-04-24T11:50:18;10.80;99.90
37642;DHT22;23486;51.956;5.888;2023-04-24T11:52:48;11.00;99.90
37642;DHT22;23486;51.956;5.888;2023-04-24T11:57:53;11.20;99.90
37642;DHT22;23486;51.956;5.888;2023-04-24T12:00:27;11.10;99.90
37642;DHT22;23486;51.956;5.888;2023-04-24T12:03:07;10.90;99.90
37642;DHT22;23486;51.956;5.888;2023-04-24T12:05:33;10.80;99.90
37642;DHT22;23486;51.956;5.888;2023-04-24T12:08:00;10.70;99.90
37642;DHT22;23486;51.956;5.888;2023-04-24T12:10:28;10.60;99.90
37642;DHT22;23486;51.956;5.888;2023-04-24T12:12:56;10.50;99.90
37642;DHT22;23486;51.956;5.888;2023-04-24T12:15:23;10.40;99.90
37642;DHT22;23486;51.956;5.888;2023-04-24T12:17:51;10.20;99.90
37642;DHT22;23486;51.956;5.888;2023-04-24T12:20:27;10.30;99.90
37642;DHT22;23486;51.956;5.888;2023-04-24T12:22:55;10.30;99.90
37642;DHT22;23486;51.956;5.888;2023-04-24T12:25:23;10.40;99.90
37642;DHT22;23486;51.956;5.888;2023-04-24T12:28:12;10.40;99.90
37642;DHT22;23486;51.956;5.888;2023-04-24T12:30:47;10.50;99.90
37642;DHT22;23486;51.956;5.888;2023-04-24T12:33:18;10.50;99.90
37642;DHT22;23486;51.956;5.888;2023-04-24T12:35:44;10.60;99.90
37642;DHT22;23486;51.956;5.888;2023-04-24T12:38:13;10.70;99.90
37642;DHT22;23486;51.956;5.888;2023-04-24T12:40:40;10.80;99.90
37642;DHT22;23486;51.956;5.888;2023-04-24T12:43:19;11.00;99.90
37642;DHT22;23486;51.956;5.888;2023-04-24T12:45:47;11.10;99.90
37642;DHT22;23486;51.956;5.888;2023-04-24T12:48:13;11.10;99.90
37642;DHT22;23486;51.956;5.888;2023-04-24T12:50:42;11.10;99.90
37642;DHT22;23486;51.956;5.888;2023-04-24T12:53:08;11.00;99.90
37642;DHT22;23486;51.956;5.888;2023-04-24T12:55:34;10.90;99.90
37642;DHT22;23486;51.956;5.888;2023-04-24T12:58:00;10.90;99.90
37642;DHT22;23486;51.956;5.888;2023-04-24T13:00:27;11.00;99.90
37642;DHT22;23486;51.956;5.888;2023-04-24T13:02:52;11.00;99.90
37642;DHT22;23486;51.956;5.888;2023-04-24T13:05:18;11.00;99.90
37642;DHT22;23486;51.956;5.888;2023-04-24T13:07:44;11.10;99.90
37642;DHT22;23486;51.956;5.888;2023-04-24T13:10:09;11.30;99.90
37642;DHT22;23486;51.956;5.888;2023-04-24T13:12:35;11.30;99.90
37642;DHT22;23486;51.956;5.888;2023-04-24T13:15:01;11.40;99.90
37642;DHT22;23486;51.956;5.888;2023-04-24T13:17:26;11.50;99.90
37642;DHT22;23486;51.956;5.888;2023-04-24T13:19:54;11.60;99.90
37642;DHT22;23486;51.956;5.888;2023-04-24T13:22:23;11.60;99.90
37642;DHT22;23486;51.956;5.888;2023-04-24T13:24:49;11.60;99.90
37642;DHT22;23486;51.956;5.888;2023-04-24T13:27:18;11.50;99.90
37642;DHT22;23486;51.956;5.888;2023-04-24T13:29:43;11.50;99.90
37642;DHT22;23486;51.956;5.888;2023-04-24T13:32:09;11.40;99.90
37642;DHT22;23486;51.956;5.888;2023-04-24T13:34:35;11.30;99.90
37642;DHT22;23486;51.956;5.888;2023-04-24T13:37:02;11.20;99.90
37642;DHT22;23486;51.956;5.888;2023-04-24T13:39:29;11.20;99.90
37642;DHT22;23486;51.956;5.888;2023-04-24T13:41:58;11.10;99.90
37642;DHT22;23486;51.956;5.888;2023-04-24T13:44:24;11.20;99.90
37642;DHT22;23486;51.956;5.888;2023-04-24T13:46:52;11.30;99.90
37642;DHT22;23486;51.956;5.888;2023-04-24T13:49:20;11.40;99.90
37642;DHT22;23486;51.956;5.888;2023-04-24T13:51:50;11.50;99.90
37642;DHT22;23486;51.956;5.888;2023-04-24T13:54:16;11.70;99.90
37642;DHT22;23486;51.956;5.888;2023-04-24T13:56:41;11.90;99.90
37642;DHT22;23486;51.956;5.888;2023-04-24T13:59:07;12.00;99.90
37642;DHT22;23486;51.956;5.888;2023-04-24T14:01:33;12.10;99.90
37642;DHT22;23486;51.956;5.888;2023-04-24T14:03:59;12.20;99.90
37642;DHT22;23486;51.956;5.888;2023-04-24T14:06:25;12.20;99.90
37642;DHT22;23486;51.956;5.888;2023-04-24T14:08:51;12.20;99.90
37642;DHT22;23486;51.956;5.888;2023-04-24T14:11:18;12.40;99.90
37642;DHT22;23486;51.956;5.888;2023-04-24T14:13:44;12.30;99.90
37642;DHT22;23486;51.956;5.888;2023-04-24T14:16:10;12.30;99.90
37642;DHT22;23486;51.956;5.888;2023-04-24T14:18:36;12.30;99.90
37642;DHT22;23486;51.956;5.888;2023-04-24T14:21:03;12.20;99.90
37642;DHT22;23486;51.956;5.888;2023-04-24T14:23:29;12.20;99.90
37642;DHT22;23486;51.956;5.888;2023-04-24T14:26:15;12.20;99.90
37642;DHT22;23486;51.956;5.888;2023-04-24T14:28:40;12.30;99.90
37642;DHT22;23486;51.956;5.888;2023-04-24T14:31:06;12.30;99.90
37642;DHT22;23486;51.956;5.888;2023-04-24T14:33:32;12.30;99.90
37642;DHT22;23486;51.956;5.888;2023-04-24T14:35:58;12.40;99.90
37642;DHT22;23486;51.956;5.888;2023-04-24T14:38:23;12.40;99.90
37642;DHT22;23486;51.956;5.888;2023-04-24T14:40:49;12.50;99.90
37642;DHT22;23486;51.956;5.888;2023-04-24T14:43:14;12.70;99.90
37642;DHT22;23486;51.956;5.888;2023-04-24T14:45:40;13.00;99.90
37642;DHT22;23486;51.956;5.888;2023-04-24T14:48:07;13.30;99.90
37642;DHT22;23486;51.956;5.888;2023-04-24T14:50:33;13.30;99.90
37642;DHT22;23486;51.956;5.888;2023-04-24T14:52:59;13.40;99.90
37642;DHT22;23486;51.956;5.888;2023-04-24T14:55:25;13.50;99.90
37642;DHT22;23486;51.956;5.888;2023-04-24T14:57:51;13.50;99.90
37642;DHT22;23486;51.956;5.888;2023-04-24T15:00:17;13.40;99.90
37642;DHT22;23486;51.956;5.888;2023-04-24T15:02:43;13.20;99.90
37642;DHT22;23486;51.956;5.888;2023-04-24T15:05:10;13.00;99.90
37642;DHT22;23486;51.956;5.888;2023-04-24T15:07:36;12.80;99.90
37642;DHT22;23486;51.956;5.888;2023-04-24T15:10:03;12.70;99.90
37642;DHT22;23486;51.956;5.888;2023-04-24T15:12:31;12.60;99.90
37642;DHT22;23486;51.956;5.888;2023-04-24T15:14:58;12.50;99.90
37642;DHT22;23486;51.956;5.888;2023-04-24T15:17:24;12.50;99.90
37642;DHT22;23486;51.956;5.888;2023-04-24T15:19:49;12.40;99.90
37642;DHT22;23486;51.956;5.888;2023-04-24T15:22:15;12.40;99.90
37642;DHT22;23486;51.956;5.888;2023-04-24T15:24:40;12.40;99.90
37642;DHT22;23486;51.956;5.888;2023-04-24T15:27:09;12.40;99.90
37642;DHT22;23486;51.956;5.888;2023-04-24T15:29:35;12.40;99.90
37642;DHT22;23486;51.956;5.888;2023-04-24T15:32:00;12.20;99.90
37642;DHT22;23486;51.956;5.888;2023-04-24T15:34:27;12.00;99.90
37642;DHT22;23486;51.956;5.888;2023-04-24T15:36:52;11.90;99.90
37642;DHT22;23486;51.956;5.888;2023-04-24T15:39:22;11.90;99.90
37642;DHT22;23486;51.956;5.888;2023-04-24T15:41:48;11.90;99.90
37642;DHT22;23486;51.956;5.888;2023-04-24T15:44:15;11.90;99.90
37642;DHT22;23486;51.956;5.888;2023-04-24T15:46:41;11.90;99.90